sensor_id;sensor_type;location;lat;lon;timestamp;pressure;altitude;pressure_sealevel;temperature;humidity
77574;BME280;66710;48.868;9.080;2023-04-23T00:01:43;97366.59;;;12.81;67.24
77574;BME280;66710;48.868;9.080;2023-04-23T00:04:10;97370.56;;;12.89;66.70
77574;BME280;66710;48.868;9.080;2023-04-23T00:06:36;97372.56;;;12.83;67.25
77574;BME280;66710;48.868;9.080;2023-04-23T00:09:02;97376.63;;;12.86;67.10
77574;BME280;66710;48.868;9.080;2023-04-23T00:11:29;97374.28;;;12.93;66.27
77574;BME280;66710;48.868;9.080;2023-04-23T00:13:54;97372.56;;;12.83;66.94
77574;BME280;66710;48.868;9.080;2023-04-23T00:16:20;97373.38;;;12.84;66.85
77574;BME280;66710;48.868;9.080;2023-04-23T00:18:46;97371.75;;;12.83;66.60
77574;BME280;66710;48.868;9.080;2023-04-23T00:21:12;97374.91;;;12.90;66.08
77574;BME280;66710;48.868;9.080;2023-04-23T00:23:38;97374.38;;;12.88;66.66
77574;BME280;66710;48.868;9.080;2023-04-23T00:26:04;97374.81;;;12.81;66.68
77574;BME280;66710;48.868;9.080;2023-04-23T00:28:29;97372.56;;;12.83;66.72
77574;BME280;66710;48.868;9.080;2023-04-23T00:30:55;97376.59;;;12.72;67.08
77574;BME280;66710;48.868;9.080;2023-04-23T00:33:20;97369.00;;;12.83;66.60
77574;BME280;66710;48.868;9.080;2023-04-23T00:35:46;97374.28;;;12.79;66.61
77574;BME280;66710;48.868;9.080;2023-04-23T00:38:11;97388.38;;;12.73;67.43
77574;BME280;66710;48.868;9.080;2023-04-23T00:40:36;97388.25;;;12.64;67.67
77574;BME280;66710;48.868;9.080;2023-04-23T00:43:02;97397.25;;;12.64;67.68
77574;BME280;66710;48.868;9.080;2023-04-23T00:45:28;97404.34;;;12.65;67.99
77574;BME280;66710;48.868;9.080;2023-04-23T00:47:55;97397.84;;;12.61;68.07
77574;BME280;66710;48.868;9.080;2023-04-23T00:50:20;97403.91;;;12.58;68.08
77574;BME280;66710;48.868;9.080;2023-04-23T00:52:46;97412.09;;;12.58;68.23
77574;BME280;66710;48.868;9.080;2023-04-23T00:55:11;97420.72;;;12.51;69.24
77574;BME280;66710;48.868;9.080;2023-04-23T00:57:37;97419.75;;;12.42;70.00
77574;BME280;66710;48.868;9.080;2023-04-23T01:00:06;97419.88;;;12.37;70.84
77574;BME280;66710;48.868;9.080;2023-04-23T01:02:33;97420.03;;;12.27;71.39
77574;BME280;66710;48.868;9.080;2023-04-23T01:05:01;97421.13;;;12.26;71.74
77574;BME280;66710;48.868;9.080;2023-04-23T01:07:27;97418.94;;;12.09;73.32
77574;BME280;66710;48.868;9.080;2023-04-23T01:09:53;97428.75;;;12.10;73.08
77574;BME280;66710;48.868;9.080;2023-04-23T01:12:18;97418.41;;;12.07;73.10
77574;BME280;66710;48.868;9.080;2023-04-23T01:14:44;97422.47;;;12.09;73.35
77574;BME280;66710;48.868;9.080;2023-04-23T01:17:10;97416.59;;;12.02;73.33
77574;BME280;66710;48.868;9.080;2023-04-23T01:19:40;97410.53;;;12.05;73.39
77574;BME280;66710;48.868;9.080;2023-04-23T01:22:11;97412.59;;;11.94;74.35
77574;BME280;66710;48.868;9.080;2023-04-23T01:24:37;97413.72;;;11.93;74.77
77574;BME280;66710;48.868;9.080;2023-04-23T01:27:03;97422.31;;;11.82;75.78
77574;BME280;66710;48.868;9.080;2023-04-23T01:29:31;97419.50;;;11.87;75.43
77574;BME280;66710;48.868;9.080;2023-04-23T01:31:56;97418.47;;;11.83;75.27
77574;BME280;66710;48.868;9.080;2023-04-23T01:34:23;97418.94;;;11.90;74.76
77574;BME280;66710;48.868;9.080;2023-04-23T01:36:48;97424.38;;;11.90;74.89
77574;BME280;66710;48.868;9.080;2023-04-23T01:39:16;97420.38;;;11.82;75.33
77574;BME280;66710;48.868;9.080;2023-04-23T01:41:42;97426.38;;;11.84;75.70
77574;BME280;66710;48.868;9.080;2023-04-23T01:44:08;97427.19;;;11.85;75.33
77574;BME280;66710;48.868;9.080;2023-04-23T01:46:34;97422.00;;;11.83;75.34
77574;BME280;66710;48.868;9.080;2023-04-23T01:48:59;97424.53;;;11.80;75.31
77574;BME280;66710;48.868;9.080;2023-04-23T01:51:25;97425.03;;;11.82;75.23
77574;BME280;66710;48.868;9.080;2023-04-23T01:53:51;97427.53;;;11.78;75.27
77574;BME280;66710;48.868;9.080;2023-04-23T01:56:18;97432.50;;;11.76;75.41
77574;BME280;66710;48.868;9.080;2023-04-23T01:58:44;97443.03;;;11.83;75.05
77574;BME280;66710;48.868;9.080;2023-04-23T02:01:09;97437.44;;;11.74;75.89
77574;BME280;66710;48.868;9.080;2023-04-23T02:03:35;97431.16;;;11.73;75.76
77574;BME280;66710;48.868;9.080;2023-04-23T02:06:00;97433.66;;;11.70;77.16
77574;BME280;66710;48.868;9.080;2023-04-23T02:08:26;97429.03;;;11.70;77.20
77574;BME280;66710;48.868;9.080;2023-04-23T02:10:52;97437.34;;;11.60;78.42
77574;BME280;66710;48.868;9.080;2023-04-23T02:13:17;97436.47;;;11.65;77.33
77574;BME280;66710;48.868;9.080;2023-04-23T02:15:43;97431.59;;;11.62;77.45
77574;BME280;66710;48.868;9.080;2023-04-23T02:18:08;97439.50;;;11.63;77.86
77574;BME280;66710;48.868;9.080;2023-04-23T02:20:35;97451.34;;;11.53;78.20
77574;BME280;66710;48.868;9.080;2023-04-23T02:23:03;97460.88;;;11.56;77.75
77574;BME280;66710;48.868;9.080;2023-04-23T02:25:28;97456.22;;;11.56;78.30
77574;BME280;66710;48.868;9.080;2023-04-23T02:27:56;97460.88;;;11.56;77.74
77574;BME280;66710;48.868;9.080;2023-04-23T02:30:21;97456.50;;;11.55;77.48
77574;BME280;66710;48.868;9.080;2023-04-23T02:32:47;97458.94;;;11.56;77.77
77574;BME280;66710;48.868;9.080;2023-04-23T02:35:12;97453.19;;;11.58;77.58
77574;BME280;66710;48.868;9.080;2023-04-23T02:37:38;97454.00;;;11.58;77.31
77574;BME280;66710;48.868;9.080;2023-04-23T02:40:04;97452.69;;;11.56;77.43
77574;BME280;66710;48.868;9.080;2023-04-23T02:42:32;97451.41;;;11.48;78.08
77574;BME280;66710;48.868;9.080;2023-04-23T02:44:58;97440.25;;;11.45;78.28
77574;BME280;66710;48.868;9.080;2023-04-23T02:47:23;97443.06;;;11.39;78.88
77574;BME280;66710;48.868;9.080;2023-04-23T02:49:50;97447.75;;;11.34;79.56
77574;BME280;66710;48.868;9.080;2023-04-23T02:52:15;97439.13;;;11.27;80.19
77574;BME280;66710;48.868;9.080;2023-04-23T02:54:41;97436.41;;;11.27;78.96
77574;BME280;66710;48.868;9.080;2023-04-23T02:57:06;97433.44;;;11.23;79.27
77574;BME280;66710;48.868;9.080;2023-04-23T02:59:31;97428.03;;;11.18;80.38
77574;BME280;66710;48.868;9.080;2023-04-23T03:01:57;97433.50;;;11.18;80.71
77574;BME280;66710;48.868;9.080;2023-04-23T03:04:22;97422.88;;;11.16;80.03
77574;BME280;66710;48.868;9.080;2023-04-23T03:06:48;97435.72;;;11.16;80.07
77574;BME280;66710;48.868;9.080;2023-04-23T03:09:13;97432.19;;;11.15;80.50
77574;BME280;66710;48.868;9.080;2023-04-23T03:11:39;97431.63;;;11.13;80.22
77574;BME280;66710;48.868;9.080;2023-04-23T03:14:05;97434.69;;;11.12;80.42
77574;BME280;66710;48.868;9.080;2023-04-23T03:16:30;97435.31;;;11.04;81.96
77574;BME280;66710;48.868;9.080;2023-04-23T03:18:56;97436.75;;;10.96;82.40
77574;BME280;66710;48.868;9.080;2023-04-23T03:21:22;97431.66;;;10.89;83.28
77574;BME280;66710;48.868;9.080;2023-04-23T03:23:48;97433.84;;;10.87;83.87
77574;BME280;66710;48.868;9.080;2023-04-23T03:26:13;97437.66;;;10.86;83.29
77574;BME280;66710;48.868;9.080;2023-04-23T03:28:38;97433.84;;;10.87;82.97
77574;BME280;66710;48.868;9.080;2023-04-23T03:31:04;97429.72;;;10.90;83.14
77574;BME280;66710;48.868;9.080;2023-04-23T03:33:29;97419.63;;;10.90;82.78
77574;BME280;66710;48.868;9.080;2023-04-23T03:35:55;97428.41;;;10.87;82.56
77574;BME280;66710;48.868;9.080;2023-04-23T03:38:20;97429.50;;;10.86;83.93
77574;BME280;66710;48.868;9.080;2023-04-23T03:40:45;97434.09;;;10.91;82.85
77574;BME280;66710;48.868;9.080;2023-04-23T03:43:11;97435.63;;;10.97;83.47
77574;BME280;66710;48.868;9.080;2023-04-23T03:45:36;97426.94;;;10.95;83.30
77574;BME280;66710;48.868;9.080;2023-04-23T03:48:01;97425.31;;;10.94;82.88
77574;BME280;66710;48.868;9.080;2023-04-23T03:50:27;97417.72;;;10.91;83.30
77574;BME280;66710;48.868;9.080;2023-04-23T03:52:53;97430.28;;;10.87;84.32
77574;BME280;66710;48.868;9.080;2023-04-23T03:55:19;97431.66;;;10.89;84.00
77574;BME280;66710;48.868;9.080;2023-04-23T03:57:45;97431.97;;;10.82;84.06
77574;BME280;66710;48.868;9.080;2023-04-23T04:00:11;97434.41;;;10.84;84.33
77574;BME280;66710;48.868;9.080;2023-04-23T04:02:37;97434.66;;;10.88;83.14
77574;BME280;66710;48.868;9.080;2023-04-23T04:05:06;97442.84;;;10.88;83.07
77574;BME280;66710;48.868;9.080;2023-04-23T04:07:32;97452.38;;;10.85;83.35
77574;BME280;66710;48.868;9.080;2023-04-23T04:09:58;97447.00;;;10.80;83.38
77574;BME280;66710;48.868;9.080;2023-04-23T04:12:24;97446.81;;;10.71;83.76
77574;BME280;66710;48.868;9.080;2023-04-23T04:14:49;97444.94;;;10.67;83.60
77574;BME280;66710;48.868;9.080;2023-04-23T04:17:15;97444.72;;;10.63;83.25
77574;BME280;66710;48.868;9.080;2023-04-23T04:19:41;97446.91;;;10.61;83.15
77574;BME280;66710;48.868;9.080;2023-04-23T04:22:10;97438.94;;;10.70;81.93
77574;BME280;66710;48.868;9.080;2023-04-23T04:24:35;97447.06;;;10.75;81.70
77574;BME280;66710;48.868;9.080;2023-04-23T04:27:02;97445.50;;;10.63;82.03
77574;BME280;66710;48.868;9.080;2023-04-23T04:29:28;97450.38;;;10.67;81.50
77574;BME280;66710;48.868;9.080;2023-04-23T04:31:55;97451.53;;;10.60;81.48
77574;BME280;66710;48.868;9.080;2023-04-23T04:34:21;97455.59;;;10.63;81.00
77574;BME280;66710;48.868;9.080;2023-04-23T04:36:46;97459.16;;;10.58;81.07
77574;BME280;66710;48.868;9.080;2023-04-23T04:39:12;97458.97;;;10.50;81.39
77574;BME280;66710;48.868;9.080;2023-04-23T04:41:39;97459.16;;;10.58;80.46
77574;BME280;66710;48.868;9.080;2023-04-23T04:44:05;97458.38;;;10.58;80.46
77574;BME280;66710;48.868;9.080;2023-04-23T04:46:32;97454.25;;;10.60;79.92
77574;BME280;66710;48.868;9.080;2023-04-23T04:48:59;97462.78;;;10.54;80.10
77574;BME280;66710;48.868;9.080;2023-04-23T04:51:24;97454.31;;;10.55;79.89
77574;BME280;66710;48.868;9.080;2023-04-23T04:53:51;97453.16;;;10.61;79.49
77574;BME280;66710;48.868;9.080;2023-04-23T04:56:16;97465.78;;;10.52;80.01
77574;BME280;66710;48.868;9.080;2023-04-23T04:58:42;97461.22;;;10.42;80.63
77574;BME280;66710;48.868;9.080;2023-04-23T05:01:07;97452.72;;;10.49;80.09
77574;BME280;66710;48.868;9.080;2023-04-23T05:03:33;97451.34;;;10.52;80.39
77574;BME280;66710;48.868;9.080;2023-04-23T05:05:59;97447.47;;;10.58;80.18
77574;BME280;66710;48.868;9.080;2023-04-23T05:08:25;97447.50;;;10.53;81.71
77574;BME280;66710;48.868;9.080;2023-04-23T05:10:50;97446.38;;;10.59;80.35
77574;BME280;66710;48.868;9.080;2023-04-23T05:13:18;97452.78;;;10.73;78.63
77574;BME280;66710;48.868;9.080;2023-04-23T05:15:44;97453.81;;;10.77;78.65
77574;BME280;66710;48.868;9.080;2023-04-23T05:18:10;97449.97;;;10.84;78.18
77574;BME280;66710;48.868;9.080;2023-04-23T05:20:36;97454.59;;;10.83;78.77
77574;BME280;66710;48.868;9.080;2023-04-23T05:23:02;97452.38;;;10.85;80.75
77574;BME280;66710;48.868;9.080;2023-04-23T05:25:28;97464.41;;;10.84;80.94
77574;BME280;66710;48.868;9.080;2023-04-23T05:27:54;97460.88;;;10.84;79.23
77574;BME280;66710;48.868;9.080;2023-04-23T05:30:19;97464.91;;;10.86;79.75
77574;BME280;66710;48.868;9.080;2023-04-23T05:32:45;97448.75;;;10.95;78.73
77574;BME280;66710;48.868;9.080;2023-04-23T05:35:10;97458.72;;;11.05;78.83
77574;BME280;66710;48.868;9.080;2023-04-23T05:37:36;97448.53;;;11.15;78.38
77574;BME280;66710;48.868;9.080;2023-04-23T05:40:01;97446.78;;;11.25;77.92
77574;BME280;66710;48.868;9.080;2023-04-23T05:42:27;97451.59;;;11.33;77.04
77574;BME280;66710;48.868;9.080;2023-04-23T05:44:52;97461.63;;;11.37;78.41
77574;BME280;66710;48.868;9.080;2023-04-23T05:47:18;97464.59;;;11.41;79.27
77574;BME280;66710;48.868;9.080;2023-04-23T05:49:43;97463.72;;;11.46;79.34
77574;BME280;66710;48.868;9.080;2023-04-23T05:52:09;97462.81;;;11.50;79.37
77574;BME280;66710;48.868;9.080;2023-04-23T05:54:34;97466.09;;;11.52;79.71
77574;BME280;66710;48.868;9.080;2023-04-23T05:57:00;97474.63;;;11.46;80.39
77574;BME280;66710;48.868;9.080;2023-04-23T05:59:26;97468.00;;;11.52;79.99
77574;BME280;66710;48.868;9.080;2023-04-23T06:01:52;97467.63;;;12.21;76.66
77574;BME280;66710;48.868;9.080;2023-04-23T06:04:17;97469.13;;;12.13;78.04
77574;BME280;66710;48.868;9.080;2023-04-23T06:06:43;97461.22;;;11.92;75.60
77574;BME280;66710;48.868;9.080;2023-04-23T06:09:09;97461.94;;;11.98;76.26
77574;BME280;66710;48.868;9.080;2023-04-23T06:11:34;97458.69;;;11.96;78.16
77574;BME280;66710;48.868;9.080;2023-04-23T06:14:02;97459.16;;;12.03;78.79
77574;BME280;66710;48.868;9.080;2023-04-23T06:16:28;97461.88;;;12.03;77.98
77574;BME280;66710;48.868;9.080;2023-04-23T06:18:54;97467.88;;;12.05;78.21
77574;BME280;66710;48.868;9.080;2023-04-23T06:21:21;97461.66;;;12.00;77.40
77574;BME280;66710;48.868;9.080;2023-04-23T06:23:46;97463.44;;;11.90;79.75
77574;BME280;66710;48.868;9.080;2023-04-23T06:26:11;97470.34;;;12.02;78.45
77574;BME280;66710;48.868;9.080;2023-04-23T06:28:37;97465.72;;;12.21;78.63
77574;BME280;66710;48.868;9.080;2023-04-23T06:31:03;97468.13;;;12.23;77.87
77574;BME280;66710;48.868;9.080;2023-04-23T06:33:30;97454.19;;;12.24;77.07
77574;BME280;66710;48.868;9.080;2023-04-23T06:35:55;97455.03;;;12.25;77.16
77574;BME280;66710;48.868;9.080;2023-04-23T06:38:20;97459.78;;;12.33;76.85
77574;BME280;66710;48.868;9.080;2023-04-23T06:40:47;97460.91;;;12.32;75.59
77574;BME280;66710;48.868;9.080;2023-04-23T06:43:12;97459.88;;;12.28;75.50
77574;BME280;66710;48.868;9.080;2023-04-23T06:45:38;97468.13;;;12.42;75.63
77574;BME280;66710;48.868;9.080;2023-04-23T06:48:04;97447.47;;;12.36;75.58
77574;BME280;66710;48.868;9.080;2023-04-23T06:50:29;97449.41;;;12.16;77.63
77574;BME280;66710;48.868;9.080;2023-04-23T06:52:55;97452.06;;;12.54;76.79
77574;BME280;66710;48.868;9.080;2023-04-23T06:55:21;97441.28;;;12.63;75.84
77574;BME280;66710;48.868;9.080;2023-04-23T06:57:53;97448.00;;;12.98;74.43
77574;BME280;66710;48.868;9.080;2023-04-23T07:00:18;97448.41;;;12.92;74.05
77574;BME280;66710;48.868;9.080;2023-04-23T07:02:44;97448.19;;;12.74;74.46
77574;BME280;66710;48.868;9.080;2023-04-23T07:05:10;97434.13;;;12.81;73.75
77574;BME280;66710;48.868;9.080;2023-04-23T07:07:36;97440.34;;;13.14;72.16
77574;BME280;66710;48.868;9.080;2023-04-23T07:10:02;97436.19;;;13.44;73.68
77574;BME280;66710;48.868;9.080;2023-04-23T07:12:28;97437.41;;;13.24;71.64
77574;BME280;66710;48.868;9.080;2023-04-23T07:14:53;97440.53;;;13.04;72.71
77574;BME280;66710;48.868;9.080;2023-04-23T07:17:19;97431.63;;;13.12;72.75
77574;BME280;66710;48.868;9.080;2023-04-23T07:19:44;97429.91;;;13.02;72.38
77574;BME280;66710;48.868;9.080;2023-04-23T07:22:09;97435.06;;;14.10;69.17
77574;BME280;66710;48.868;9.080;2023-04-23T07:24:35;97433.56;;;14.49;67.84
77574;BME280;66710;48.868;9.080;2023-04-23T07:27:00;97426.28;;;14.21;67.67
77574;BME280;66710;48.868;9.080;2023-04-23T07:29:26;97431.16;;;15.01;65.91
77574;BME280;66710;48.868;9.080;2023-04-23T07:31:52;97424.59;;;14.57;66.08
77574;BME280;66710;48.868;9.080;2023-04-23T07:34:17;97425.91;;;14.82;64.81
77574;BME280;66710;48.868;9.080;2023-04-23T07:36:43;97426.25;;;14.89;63.61
77574;BME280;66710;48.868;9.080;2023-04-23T07:39:08;97421.56;;;14.58;64.98
77574;BME280;66710;48.868;9.080;2023-04-23T07:41:33;97425.97;;;14.00;67.11
77574;BME280;66710;48.868;9.080;2023-04-23T07:43:59;97422.22;;;14.41;67.31
77574;BME280;66710;48.868;9.080;2023-04-23T07:46:25;97416.94;;;14.00;67.90
77574;BME280;66710;48.868;9.080;2023-04-23T07:48:50;97415.94;;;14.18;67.62
77574;BME280;66710;48.868;9.080;2023-04-23T07:51:17;97420.00;;;14.66;65.68
77574;BME280;66710;48.868;9.080;2023-04-23T07:53:42;97413.94;;;14.55;64.55
77574;BME280;66710;48.868;9.080;2023-04-23T07:56:08;97413.22;;;14.64;64.28
77574;BME280;66710;48.868;9.080;2023-04-23T07:58:33;97412.34;;;14.86;63.43
77574;BME280;66710;48.868;9.080;2023-04-23T08:01:01;97410.91;;;14.34;64.61
77574;BME280;66710;48.868;9.080;2023-04-23T08:03:27;97415.72;;;14.74;63.67
77574;BME280;66710;48.868;9.080;2023-04-23T08:05:52;97407.66;;;15.75;62.04
77574;BME280;66710;48.868;9.080;2023-04-23T08:08:17;97400.75;;;15.78;60.97
77574;BME280;66710;48.868;9.080;2023-04-23T08:10:44;97404.16;;;16.01;60.47
77574;BME280;66710;48.868;9.080;2023-04-23T08:13:09;97399.69;;;16.70;59.30
77574;BME280;66710;48.868;9.080;2023-04-23T08:15:35;97387.28;;;16.46;58.27
77574;BME280;66710;48.868;9.080;2023-04-23T08:18:00;97391.50;;;16.35;59.38
77574;BME280;66710;48.868;9.080;2023-04-23T08:20:25;97388.34;;;15.40;60.11
77574;BME280;66710;48.868;9.080;2023-04-23T08:22:51;97382.91;;;15.00;61.69
77574;BME280;66710;48.868;9.080;2023-04-23T08:25:18;97385.72;;;16.10;59.47
77574;BME280;66710;48.868;9.080;2023-04-23T08:27:44;97380.31;;;16.57;58.12
77574;BME280;66710;48.868;9.080;2023-04-23T08:30:09;97382.97;;;16.10;58.14
77574;BME280;66710;48.868;9.080;2023-04-23T08:32:35;97377.16;;;15.19;59.62
77574;BME280;66710;48.868;9.080;2023-04-23T08:35:01;97380.69;;;15.11;60.60
77574;BME280;66710;48.868;9.080;2023-04-23T08:37:26;97378.09;;;15.89;60.26
77574;BME280;66710;48.868;9.080;2023-04-23T08:39:51;97379.13;;;16.76;57.00
77574;BME280;66710;48.868;9.080;2023-04-23T08:42:29;97378.41;;;17.05;55.55
77574;BME280;66710;48.868;9.080;2023-04-23T08:44:57;97371.72;;;17.44;54.36
77574;BME280;66710;48.868;9.080;2023-04-23T08:47:23;97365.53;;;17.98;53.59
77574;BME280;66710;48.868;9.080;2023-04-23T08:49:53;97368.38;;;18.44;53.09
77574;BME280;66710;48.868;9.080;2023-04-23T08:52:22;97378.94;;;17.58;55.14
77574;BME280;66710;48.868;9.080;2023-04-23T08:54:51;97369.78;;;17.66;51.96
77574;BME280;66710;48.868;9.080;2023-04-23T08:57:17;97369.84;;;17.78;53.05
77574;BME280;66710;48.868;9.080;2023-04-23T08:59:43;97365.91;;;17.37;54.02
77574;BME280;66710;48.868;9.080;2023-04-23T09:02:09;97367.09;;;16.98;54.96
77574;BME280;66710;48.868;9.080;2023-04-23T09:04:35;97367.88;;;17.37;54.14
77574;BME280;66710;48.868;9.080;2023-04-23T09:07:01;97359.69;;;18.33;52.40
77574;BME280;66710;48.868;9.080;2023-04-23T09:09:28;97359.06;;;17.43;52.20
77574;BME280;66710;48.868;9.080;2023-04-23T09:11:55;97348.97;;;17.77;52.56
77574;BME280;66710;48.868;9.080;2023-04-23T09:14:22;97353.44;;;17.10;53.33
77574;BME280;66710;48.868;9.080;2023-04-23T09:16:49;97353.00;;;16.99;54.15
77574;BME280;66710;48.868;9.080;2023-04-23T09:19:16;97346.78;;;17.41;52.12
77574;BME280;66710;48.868;9.080;2023-04-23T09:21:43;97347.47;;;17.59;52.10
77574;BME280;66710;48.868;9.080;2023-04-23T09:24:10;97346.25;;;16.79;53.70
77574;BME280;66710;48.868;9.080;2023-04-23T09:26:45;97348.25;;;16.70;54.77
77574;BME280;66710;48.868;9.080;2023-04-23T09:29:16;97338.19;;;16.74;54.94
77574;BME280;66710;48.868;9.080;2023-04-23T09:31:47;97338.19;;;16.74;54.36
77574;BME280;66710;48.868;9.080;2023-04-23T09:34:15;97323.63;;;16.74;54.32
77574;BME280;66710;48.868;9.080;2023-04-23T09:36:42;97326.53;;;16.21;55.78
77574;BME280;66710;48.868;9.080;2023-04-23T09:39:13;97325.41;;;16.05;56.33
77574;BME280;66710;48.868;9.080;2023-04-23T09:41:39;97315.41;;;16.00;56.51
77574;BME280;66710;48.868;9.080;2023-04-23T09:44:04;97313.81;;;15.90;56.91
77574;BME280;66710;48.868;9.080;2023-04-23T09:46:38;97303.84;;;17.19;54.78
77574;BME280;66710;48.868;9.080;2023-04-23T09:49:05;97306.41;;;18.42;50.89
77574;BME280;66710;48.868;9.080;2023-04-23T09:51:45;97299.50;;;17.60;51.60
77574;BME280;66710;48.868;9.080;2023-04-23T09:54:19;97295.00;;;18.31;49.75
77574;BME280;66710;48.868;9.080;2023-04-23T09:56:50;97294.66;;;17.36;53.37
77574;BME280;66710;48.868;9.080;2023-04-23T09:59:26;97295.31;;;17.33;53.27
77574;BME280;66710;48.868;9.080;2023-04-23T10:01:53;97289.97;;;18.45;51.70
77574;BME280;66710;48.868;9.080;2023-04-23T10:04:20;97284.81;;;18.56;52.63
77574;BME280;66710;48.868;9.080;2023-04-23T10:06:47;97289.88;;;18.66;51.28
77574;BME280;66710;48.868;9.080;2023-04-23T10:09:12;97279.84;;;17.49;52.60
77574;BME280;66710;48.868;9.080;2023-04-23T10:11:38;97283.75;;;17.18;53.89
77574;BME280;66710;48.868;9.080;2023-04-23T10:14:04;97267.84;;;17.24;53.96
77574;BME280;66710;48.868;9.080;2023-04-23T10:16:30;97274.16;;;17.03;52.18
77574;BME280;66710;48.868;9.080;2023-04-23T10:18:57;97267.59;;;17.59;52.25
77574;BME280;66710;48.868;9.080;2023-04-23T10:21:25;97267.25;;;17.60;49.37
77574;BME280;66710;48.868;9.080;2023-04-23T10:23:54;97259.50;;;18.42;47.25
77574;BME280;66710;48.868;9.080;2023-04-23T10:26:21;97259.72;;;18.36;48.54
77574;BME280;66710;48.868;9.080;2023-04-23T10:28:49;97260.31;;;18.54;48.66
77574;BME280;66710;48.868;9.080;2023-04-23T10:31:18;97251.31;;;18.33;47.18
77574;BME280;66710;48.868;9.080;2023-04-23T10:33:44;97251.88;;;17.59;49.05
77574;BME280;66710;48.868;9.080;2023-04-23T10:36:11;97243.50;;;17.35;48.76
77574;BME280;66710;48.868;9.080;2023-04-23T10:38:38;97246.97;;;17.65;49.49
77574;BME280;66710;48.868;9.080;2023-04-23T10:41:04;97235.81;;;18.16;47.63
77574;BME280;66710;48.868;9.080;2023-04-23T10:43:31;97232.09;;;18.12;49.30
77574;BME280;66710;48.868;9.080;2023-04-23T10:45:57;97233.16;;;18.19;50.16
77574;BME280;66710;48.868;9.080;2023-04-23T10:48:22;97228.59;;;17.90;48.87
77574;BME280;66710;48.868;9.080;2023-04-23T10:50:56;97229.84;;;17.93;47.80
77574;BME280;66710;48.868;9.080;2023-04-23T10:53:21;97222.16;;;17.86;47.93
77574;BME280;66710;48.868;9.080;2023-04-23T10:55:47;97224.84;;;17.74;47.46
77574;BME280;66710;48.868;9.080;2023-04-23T10:58:12;97230.06;;;18.33;46.31
77574;BME280;66710;48.868;9.080;2023-04-23T11:06:01;97212.59;;;18.17;43.84
77574;BME280;66710;48.868;9.080;2023-04-23T11:08:31;97207.31;;;18.36;41.93
77574;BME280;66710;48.868;9.080;2023-04-23T11:11:00;97210.78;;;18.83;41.71
77574;BME280;66710;48.868;9.080;2023-04-23T11:13:27;97212.16;;;18.76;40.94
77574;BME280;66710;48.868;9.080;2023-04-23T11:16:12;97206.63;;;19.13;40.69
77574;BME280;66710;48.868;9.080;2023-04-23T11:18:58;97221.44;;;19.21;40.63
77574;BME280;66710;48.868;9.080;2023-04-23T11:24:34;97209.50;;;17.31;43.38
77574;BME280;66710;48.868;9.080;2023-04-23T11:27:14;97203.28;;;18.09;43.22
77574;BME280;66710;48.868;9.080;2023-04-23T11:29:42;97204.88;;;18.10;43.17
77574;BME280;66710;48.868;9.080;2023-04-23T11:32:08;97195.94;;;18.26;41.51
77574;BME280;66710;48.868;9.080;2023-04-23T11:34:44;97181.59;;;18.82;39.97
77574;BME280;66710;48.868;9.080;2023-04-23T11:37:10;97171.34;;;18.82;40.16
77574;BME280;66710;48.868;9.080;2023-04-23T11:39:37;97171.53;;;19.42;40.35
77574;BME280;66710;48.868;9.080;2023-04-23T11:42:02;97172.97;;;18.59;42.36
77574;BME280;66710;48.868;9.080;2023-04-23T11:44:30;97179.88;;;19.30;42.08
77574;BME280;66710;48.868;9.080;2023-04-23T11:46:59;97173.88;;;18.75;41.06
77574;BME280;66710;48.868;9.080;2023-04-23T11:49:25;97161.91;;;18.96;43.19
77574;BME280;66710;48.868;9.080;2023-04-23T11:51:50;97160.81;;;19.69;42.06
77574;BME280;66710;48.868;9.080;2023-04-23T11:54:15;97157.22;;;19.81;40.82
77574;BME280;66710;48.868;9.080;2023-04-23T11:56:41;97152.34;;;19.33;40.77
77574;BME280;66710;48.868;9.080;2023-04-23T11:59:06;97147.59;;;19.91;39.62
77574;BME280;66710;48.868;9.080;2023-04-23T12:01:45;97144.16;;;19.65;40.42
77574;BME280;66710;48.868;9.080;2023-04-23T12:04:15;97139.47;;;18.97;41.01
77574;BME280;66710;48.868;9.080;2023-04-23T12:06:43;97135.13;;;19.24;42.09
77574;BME280;66710;48.868;9.080;2023-04-23T12:09:09;97135.50;;;19.67;41.60
77574;BME280;66710;48.868;9.080;2023-04-23T12:11:36;97127.13;;;19.63;40.25
77574;BME280;66710;48.868;9.080;2023-04-23T12:14:02;97130.34;;;19.09;40.79
77574;BME280;66710;48.868;9.080;2023-04-23T12:16:43;97121.16;;;19.61;40.96
77574;BME280;66710;48.868;9.080;2023-04-23T12:19:15;97109.88;;;20.14;40.30
77574;BME280;66710;48.868;9.080;2023-04-23T12:21:52;97113.41;;;20.62;39.88
77574;BME280;66710;48.868;9.080;2023-04-23T12:24:23;97109.56;;;19.72;40.73
77574;BME280;66710;48.868;9.080;2023-04-23T12:26:51;97092.81;;;20.44;39.69
77574;BME280;66710;48.868;9.080;2023-04-23T12:29:19;97095.81;;;20.90;38.85
77574;BME280;66710;48.868;9.080;2023-04-23T12:31:44;97083.84;;;21.45;38.06
77574;BME280;66710;48.868;9.080;2023-04-23T12:34:10;97090.88;;;20.99;38.74
77574;BME280;66710;48.868;9.080;2023-04-23T12:36:38;97086.25;;;20.68;39.61
77574;BME280;66710;48.868;9.080;2023-04-23T12:41:43;97085.88;;;20.70;38.35
77574;BME280;66710;48.868;9.080;2023-04-23T12:44:09;97077.81;;;20.80;37.87
77574;BME280;66710;48.868;9.080;2023-04-23T12:46:34;97068.84;;;20.87;37.35
77574;BME280;66710;48.868;9.080;2023-04-23T12:49:00;97059.97;;;20.78;38.00
77574;BME280;66710;48.868;9.080;2023-04-23T12:51:25;97067.53;;;19.94;38.94
77574;BME280;66710;48.868;9.080;2023-04-23T12:53:50;97051.50;;;20.71;37.88
77574;BME280;66710;48.868;9.080;2023-04-23T12:56:16;97053.28;;;21.61;37.83
77574;BME280;66710;48.868;9.080;2023-04-23T12:58:41;97046.25;;;20.85;37.26
77574;BME280;66710;48.868;9.080;2023-04-23T13:01:06;97047.06;;;20.86;36.59
77574;BME280;66710;48.868;9.080;2023-04-23T13:03:32;97046.84;;;20.75;38.91
77574;BME280;66710;48.868;9.080;2023-04-23T13:05:57;97034.31;;;21.00;37.94
77574;BME280;66710;48.868;9.080;2023-04-23T13:08:22;97036.47;;;21.50;38.42